createdAt,value
2022-10-08T00:01:41.834Z,15.90
2022-10-08T00:05:43.477Z,15.80
2022-10-08T00:09:44.566Z,15.70
2022-10-08T00:13:48.200Z,15.70
2022-10-08T00:17:49.427Z,15.30
2022-10-08T00:21:53.462Z,15.20
2022-10-08T00:25:54.661Z,15.60
2022-10-08T00:29:55.852Z,15.70
2022-10-08T00:33:58.866Z,15.60
2022-10-08T00:38:00.147Z,15.70
2022-10-08T00:42:01.723Z,15.80
2022-10-08T00:46:04.819Z,15.90
2022-10-08T00:50:09.923Z,15.90
2022-10-08T00:54:12.931Z,15.90
2022-10-08T00:58:21.121Z,16.00
2022-10-08T01:02:22.377Z,16.00
2022-10-08T01:06:27.107Z,16.20
2022-10-08T01:10:56.110Z,16.40
2022-10-08T01:15:05.701Z,16.40
2022-10-08T01:19:23.072Z,16.20
2022-10-08T01:23:50.798Z,16.20
2022-10-08T01:27:55.955Z,16.20
2022-10-08T01:32:07.038Z,16.20
2022-10-08T01:36:10.444Z,16.20
2022-10-08T01:40:15.450Z,16.30
2022-10-08T01:44:23.510Z,16.40
2022-10-08T01:48:28.530Z,16.30
2022-10-08T01:52:39.559Z,16.30
2022-10-08T01:56:42.356Z,16.30
2022-10-08T02:00:46.998Z,16.30
2022-10-08T02:04:50.978Z,16.30
2022-10-08T02:08:52.775Z,16.30
2022-10-08T02:12:53.964Z,16.20
2022-10-08T02:17:04.881Z,16.30
2022-10-08T02:21:22.932Z,16.10
2022-10-08T02:25:30.893Z,16.20
2022-10-08T02:29:38.879Z,16.30
2022-10-08T02:33:49.792Z,16.10
2022-10-08T02:38:06.746Z,16.20
2022-10-08T02:42:11.758Z,16.20
2022-10-08T02:46:22.983Z,16.10
2022-10-08T02:50:26.941Z,16.10
2022-10-08T02:54:31.931Z,16.00
2022-10-08T02:58:33.627Z,15.90
2022-10-08T03:02:38.588Z,15.90
2022-10-08T03:06:40.844Z,15.90
2022-10-08T03:10:43.214Z,15.80
2022-10-08T03:14:47.518Z,15.80
2022-10-08T03:18:51.433Z,15.80
2022-10-08T03:22:59.431Z,15.70
2022-10-08T03:27:00.678Z,15.50
2022-10-08T03:31:06.039Z,15.20
2022-10-08T03:35:07.383Z,15.30
2022-10-08T03:39:10.393Z,15.40
2022-10-08T03:43:11.623Z,15.40
2022-10-08T03:47:12.833Z,15.40
2022-10-08T03:51:14.433Z,15.30
2022-10-08T03:55:16.074Z,15.30
2022-10-08T03:59:17.257Z,15.20
2022-10-08T04:03:18.358Z,15.10
2022-10-08T04:07:19.560Z,15.00
2022-10-08T04:11:20.745Z,14.90
2022-10-08T04:15:21.861Z,14.90
2022-10-08T04:19:23.015Z,14.90
2022-10-08T04:23:24.418Z,14.90
2022-10-08T04:27:26.103Z,14.80
2022-10-08T04:31:27.414Z,14.80
2022-10-08T04:35:28.611Z,14.70
2022-10-08T04:39:29.801Z,14.70
2022-10-08T04:43:31.089Z,14.50
2022-10-08T04:47:32.167Z,14.40
2022-10-08T04:51:33.259Z,14.40
2022-10-08T04:55:34.546Z,14.30
2022-10-08T04:59:35.771Z,14.20
2022-10-08T05:03:38.763Z,14.20
2022-10-08T05:07:39.846Z,14.20
2022-10-08T05:11:41.732Z,14.10
2022-10-08T05:15:42.964Z,14.10
2022-10-08T05:19:44.401Z,14.20
2022-10-08T05:23:45.594Z,14.30
2022-10-08T05:27:46.703Z,14.20
2022-10-08T05:31:47.781Z,14.20
2022-10-08T05:35:48.880Z,14.20
2022-10-08T05:39:50.034Z,14.20
2022-10-08T05:43:52.833Z,14.00
2022-10-08T05:47:54.897Z,13.90
2022-10-08T05:51:56.083Z,13.90
2022-10-08T05:56:01.880Z,13.90
2022-10-08T06:00:04.347Z,14.00
2022-10-08T06:04:08.797Z,14.00
2022-10-08T06:08:09.040Z,14.00
2022-10-08T06:12:12.006Z,14.00
2022-10-08T06:16:13.145Z,13.90
2022-10-08T06:20:14.617Z,14.00
2022-10-08T06:24:15.803Z,14.00
2022-10-08T06:28:17.023Z,14.00
2022-10-08T06:32:18.263Z,14.00
2022-10-08T06:36:24.638Z,14.10
2022-10-08T06:40:25.727Z,14.10
2022-10-08T06:44:26.786Z,14.20
2022-10-08T06:48:27.891Z,14.20
2022-10-08T06:52:28.966Z,14.30
2022-10-08T06:56:30.066Z,14.20
2022-10-08T07:00:31.431Z,14.30
2022-10-08T07:04:32.507Z,14.40
2022-10-08T07:08:35.398Z,14.60
2022-10-08T07:12:36.879Z,14.40
2022-10-08T07:16:38.146Z,14.50
2022-10-08T07:20:39.339Z,14.70
2022-10-08T07:24:40.522Z,14.70
2022-10-08T07:28:44.983Z,14.90
2022-10-08T07:32:46.440Z,15.40
2022-10-08T07:36:47.799Z,15.90
2022-10-08T07:40:50.987Z,16.20
2022-10-08T07:44:52.177Z,16.50
2022-10-08T07:48:58.380Z,17.00
2022-10-08T07:52:59.552Z,17.30
2022-10-08T07:57:01.525Z,17.80
2022-10-08T08:01:04.683Z,17.90
2022-10-08T08:05:06.938Z,17.90
2022-10-08T08:09:09.330Z,17.70
2022-10-08T08:13:10.411Z,17.90
2022-10-08T08:17:11.711Z,18.40
2022-10-08T08:21:21.649Z,18.80
2022-10-08T08:25:23.142Z,19.00
2022-10-08T08:29:24.338Z,19.30
2022-10-08T08:33:25.505Z,19.50
2022-10-08T08:37:26.610Z,20.00
2022-10-08T08:41:37.679Z,20.50
2022-10-08T08:45:47.979Z,20.70
2022-10-08T08:49:53.405Z,20.90
2022-10-08T08:53:54.681Z,20.80
2022-10-08T08:58:11.086Z,21.20
2022-10-08T09:02:24.532Z,21.20
2022-10-08T09:06:26.191Z,20.90
2022-10-08T09:10:43.429Z,20.90
2022-10-08T09:14:54.434Z,21.20
2022-10-08T09:18:55.887Z,20.60
2022-10-08T09:22:58.362Z,20.30
2022-10-08T09:27:00.372Z,20.00
2022-10-08T09:31:14.277Z,19.70
2022-10-08T09:35:15.988Z,19.50
2022-10-08T09:39:28.873Z,19.30
2022-10-08T09:43:32.766Z,19.10
2022-10-08T09:47:33.880Z,19.20
2022-10-08T09:51:35.052Z,19.20
2022-10-08T09:55:36.430Z,19.10
2022-10-08T09:59:40.819Z,19.20
2022-10-08T10:03:48.890Z,19.00
2022-10-08T10:07:50.822Z,18.90
2022-10-08T10:11:55.793Z,19.50
2022-10-08T10:16:04.167Z,19.50
2022-10-08T10:20:21.241Z,19.50
2022-10-08T10:24:29.420Z,19.10
2022-10-08T10:28:34.415Z,19.20
2022-10-08T10:32:48.420Z,19.30
2022-10-08T10:37:02.794Z,19.60
2022-10-08T10:41:22.644Z,20.30
2022-10-08T10:45:27.341Z,20.70
2022-10-08T10:49:34.812Z,21.20
2022-10-08T10:53:45.249Z,20.90
2022-10-08T10:58:14.077Z,21.40
2022-10-08T11:02:43.619Z,21.80
2022-10-08T11:07:04.625Z,22.10
2022-10-08T11:11:21.830Z,21.40
2022-10-08T11:15:38.588Z,21.30
2022-10-08T11:19:59.667Z,20.90
2022-10-08T11:24:13.549Z,20.50
2022-10-08T11:28:21.593Z,20.60
2022-10-08T11:32:24.225Z,20.90
2022-10-08T11:36:38.437Z,21.30
2022-10-08T11:40:43.465Z,21.30
2022-10-08T11:44:44.649Z,21.20
2022-10-08T11:48:46.626Z,21.10
2022-10-08T11:52:48.810Z,20.70
2022-10-08T11:56:54.134Z,20.50
2022-10-08T12:01:07.339Z,20.10
2022-10-08T12:05:24.676Z,19.80
2022-10-08T12:09:26.108Z,19.70
2022-10-08T12:13:29.000Z,19.80
2022-10-08T12:17:33.995Z,19.70
2022-10-08T12:21:37.803Z,19.70
2022-10-08T12:26:02.905Z,19.80
2022-10-08T12:30:15.918Z,19.60
2022-10-08T12:34:19.120Z,19.50
2022-10-08T12:38:32.922Z,19.40
2022-10-08T12:42:37.139Z,19.20
2022-10-08T12:46:50.502Z,19.10
2022-10-08T12:51:04.410Z,19.00
2022-10-08T12:55:06.465Z,18.90
2022-10-08T13:03:06.889Z,18.90
2022-10-08T13:07:11.885Z,19.20
2022-10-08T13:11:14.681Z,19.20
2022-10-08T13:15:22.126Z,19.20
2022-10-08T13:19:36.422Z,19.10
2022-10-08T13:23:43.273Z,19.00
2022-10-08T13:27:44.429Z,19.00
2022-10-08T13:32:06.333Z,19.20
2022-10-08T13:36:07.548Z,19.30
2022-10-08T13:40:12.519Z,19.80
2022-10-08T13:44:13.706Z,19.90
2022-10-08T13:48:14.882Z,20.00
2022-10-08T13:52:18.783Z,19.80
2022-10-08T13:56:21.839Z,19.70
2022-10-08T14:00:23.356Z,19.40
2022-10-08T14:04:24.632Z,19.40
2022-10-08T14:08:28.732Z,19.70
2022-10-08T14:12:32.729Z,20.10
2022-10-08T14:16:33.948Z,20.20
2022-10-08T14:20:36.673Z,20.30
2022-10-08T14:24:37.858Z,20.40
2022-10-08T14:28:39.206Z,20.30
2022-10-08T14:32:41.020Z,20.30
2022-10-08T14:36:42.203Z,20.30
2022-10-08T14:40:43.280Z,20.00
2022-10-08T14:44:44.467Z,20.10
2022-10-08T14:48:45.658Z,19.80
2022-10-08T14:52:47.184Z,19.90
2022-10-08T14:56:48.619Z,19.80
2022-10-08T15:00:53.951Z,19.80
2022-10-08T15:04:55.151Z,19.70
2022-10-08T15:08:56.326Z,19.50
2022-10-08T15:12:57.434Z,19.50
2022-10-08T15:16:58.607Z,19.50
2022-10-08T15:21:00.098Z,19.50
2022-10-08T15:25:01.255Z,19.50
2022-10-08T15:29:02.958Z,19.40
2022-10-08T15:33:06.623Z,19.60
2022-10-08T15:37:07.822Z,19.50
2022-10-08T15:41:08.899Z,19.60
2022-10-08T15:45:09.983Z,19.40
2022-10-08T15:49:11.162Z,19.20
2022-10-08T15:53:13.366Z,19.10
2022-10-08T15:57:16.941Z,19.10
2022-10-08T16:01:21.125Z,19.10
2022-10-08T16:05:22.361Z,19.10
2022-10-08T16:09:24.055Z,18.90
2022-10-08T16:13:25.150Z,19.00
2022-10-08T16:17:26.313Z,18.80
2022-10-08T16:21:30.918Z,18.70
2022-10-08T16:25:34.683Z,18.50
2022-10-08T16:29:35.956Z,18.40
2022-10-08T16:33:37.518Z,18.10
2022-10-08T16:37:38.625Z,18.10
2022-10-08T16:41:40.911Z,18.10
2022-10-08T16:45:42.059Z,18.00
2022-10-08T16:49:43.305Z,17.90
2022-10-08T16:53:50.739Z,17.70
2022-10-08T16:57:51.927Z,17.50
2022-10-08T17:01:55.084Z,17.30
2022-10-08T17:05:56.319Z,17.00
2022-10-08T17:09:57.436Z,16.70
2022-10-08T17:13:59.627Z,16.60
2022-10-08T17:18:01.315Z,16.50
2022-10-08T17:22:02.596Z,16.40
2022-10-08T17:26:10.090Z,16.20
2022-10-08T17:30:11.885Z,16.10
2022-10-08T17:34:13.274Z,15.90
2022-10-08T17:38:14.462Z,15.80
2022-10-08T17:42:15.942Z,15.60
2022-10-08T17:46:22.346Z,15.50
2022-10-08T17:50:25.394Z,15.40
2022-10-08T17:54:26.686Z,15.40
2022-10-08T17:58:27.888Z,15.30
2022-10-08T18:02:29.000Z,15.20
2022-10-08T18:06:31.502Z,15.10
2022-10-08T18:10:37.581Z,15.10
2022-10-08T18:14:38.676Z,15.20
2022-10-08T18:18:41.085Z,15.10
2022-10-08T18:22:42.170Z,15.00
2022-10-08T18:26:43.455Z,14.90
2022-10-08T18:30:46.269Z,14.80
2022-10-08T18:34:48.039Z,14.80
2022-10-08T18:38:55.511Z,14.70
2022-10-08T18:42:56.873Z,14.60
2022-10-08T18:47:01.740Z,14.50
2022-10-08T18:51:10.152Z,14.40
2022-10-08T18:55:11.542Z,14.30
2022-10-08T18:59:14.884Z,14.20
2022-10-08T19:03:16.019Z,14.10
2022-10-08T19:07:17.211Z,14.10
2022-10-08T19:11:21.711Z,13.90
2022-10-08T19:15:22.900Z,13.80
2022-10-08T19:19:26.809Z,13.80
2022-10-08T19:23:27.995Z,13.80
2022-10-08T19:27:29.070Z,13.70
2022-10-08T19:31:33.139Z,13.70
2022-10-08T19:35:34.358Z,13.60
2022-10-08T19:39:35.549Z,13.60
2022-10-08T19:43:37.419Z,13.50
2022-10-08T19:47:38.613Z,13.40
2022-10-08T19:51:39.993Z,13.40
2022-10-08T19:55:41.182Z,13.20
2022-10-08T19:59:42.271Z,13.20
2022-10-08T20:03:44.811Z,13.10
2022-10-08T20:07:46.429Z,13.00
2022-10-08T20:11:49.016Z,13.00
2022-10-08T20:15:51.637Z,12.80
2022-10-08T20:19:53.098Z,12.80
2022-10-08T20:23:55.040Z,12.80
2022-10-08T20:27:56.315Z,12.70
2022-10-08T20:31:59.006Z,12.60
2022-10-08T20:36:00.203Z,12.60
2022-10-08T20:40:02.155Z,12.50
2022-10-08T20:44:04.715Z,12.50
2022-10-08T20:48:05.890Z,12.70
2022-10-08T20:52:06.979Z,12.60
2022-10-08T20:56:10.673Z,12.70
2022-10-08T21:00:13.093Z,12.60
2022-10-08T21:04:14.275Z,12.60
2022-10-08T21:08:15.457Z,12.60
2022-10-08T21:12:16.648Z,12.60
2022-10-08T21:16:24.275Z,12.60
2022-10-08T21:20:25.434Z,12.50
2022-10-08T21:24:26.515Z,12.40
2022-10-08T21:28:27.623Z,12.60
2022-10-08T21:32:28.782Z,12.70
2022-10-08T21:36:32.862Z,12.50
2022-10-08T21:40:33.938Z,12.50
2022-10-08T21:44:35.138Z,12.40
2022-10-08T21:48:36.223Z,12.40
2022-10-08T21:52:37.308Z,12.30
2022-10-08T21:56:40.397Z,12.20
2022-10-08T22:00:41.640Z,12.10
2022-10-08T22:04:42.795Z,12.00
2022-10-08T22:08:43.966Z,11.90
2022-10-08T22:12:45.447Z,11.70
2022-10-08T22:16:47.236Z,11.60
2022-10-08T22:20:48.919Z,11.60
2022-10-08T22:24:50.106Z,11.60
2022-10-08T22:28:51.367Z,11.60
2022-10-08T22:32:52.598Z,11.50
2022-10-08T22:36:53.878Z,11.50
2022-10-08T22:41:01.868Z,11.40
2022-10-08T22:45:03.227Z,11.40
2022-10-08T22:49:07.610Z,11.30
2022-10-08T22:53:08.707Z,11.40
2022-10-08T22:57:09.894Z,11.40
2022-10-08T23:01:14.092Z,11.30
2022-10-08T23:05:15.343Z,11.30
2022-10-08T23:09:16.419Z,11.20
2022-10-08T23:13:17.657Z,11.20
2022-10-08T23:17:18.807Z,11.10
2022-10-08T23:21:19.911Z,11.10
2022-10-08T23:25:21.081Z,11.00
2022-10-08T23:29:22.268Z,10.90
2022-10-08T23:33:23.463Z,10.80
2022-10-08T23:37:24.543Z,10.80
2022-10-08T23:41:27.012Z,10.70
2022-10-08T23:45:28.185Z,10.50
2022-10-08T23:49:29.357Z,10.60
2022-10-08T23:53:31.287Z,10.60
2022-10-08T23:57:32.479Z,10.60
